sensor_id;sensor_type;location;lat;lon;timestamp;pressure;altitude;pressure_sealevel;temperature;humidity
17936;BME280;9093;52.062;4.508;2023-04-03T00:00:51;103410.75;;;7.35;65.86
17936;BME280;9093;52.062;4.508;2023-04-03T00:03:32;103407.22;;;7.30;65.63
17936;BME280;9093;52.062;4.508;2023-04-03T00:06:13;103418.75;;;7.26;65.82
17936;BME280;9093;52.062;4.508;2023-04-03T00:08:54;103413.44;;;7.24;65.84
17936;BME280;9093;52.062;4.508;2023-04-03T00:11:34;103409.88;;;7.22;66.00
17936;BME280;9093;52.062;4.508;2023-04-03T00:14:15;103416.06;;;7.23;65.85
17936;BME280;9093;52.062;4.508;2023-04-03T00:16:55;103416.09;;;7.20;65.73
17936;BME280;9093;52.062;4.508;2023-04-03T00:19:36;103419.63;;;7.17;65.95
17936;BME280;9093;52.062;4.508;2023-04-03T00:22:16;103415.16;;;7.15;66.06
17936;BME280;9093;52.062;4.508;2023-04-03T00:24:56;103409.84;;;7.09;66.14
17936;BME280;9093;52.062;4.508;2023-04-03T00:27:38;103411.63;;;7.07;66.00
17936;BME280;9093;52.062;4.508;2023-04-03T00:30:20;103413.41;;;7.09;65.82
17936;BME280;9093;52.062;4.508;2023-04-03T00:33:01;103415.19;;;7.07;65.92
17936;BME280;9093;52.062;4.508;2023-04-03T00:35:41;103415.19;;;7.07;65.75
17936;BME280;9093;52.062;4.508;2023-04-03T00:38:22;103422.25;;;7.05;66.05
17936;BME280;9093;52.062;4.508;2023-04-03T00:41:02;103416.91;;;7.02;65.85
17936;BME280;9093;52.062;4.508;2023-04-03T00:43:42;103416.91;;;6.96;66.28
17936;BME280;9093;52.062;4.508;2023-04-03T00:46:23;103416.91;;;6.98;66.17
17936;BME280;9093;52.062;4.508;2023-04-03T00:49:03;103425.81;;;7.01;66.04
17936;BME280;9093;52.062;4.508;2023-04-03T00:51:43;103422.22;;;7.02;65.85
17936;BME280;9093;52.062;4.508;2023-04-03T00:54:25;103419.56;;;7.02;65.93
17936;BME280;9093;52.062;4.508;2023-04-03T00:57:07;103421.38;;;7.02;65.99
17936;BME280;9093;52.062;4.508;2023-04-03T00:59:59;103422.25;;;6.95;65.82
17936;BME280;9093;52.062;4.508;2023-04-03T01:02:41;103420.47;;;6.92;66.25
17936;BME280;9093;52.062;4.508;2023-04-03T01:05:22;103431.09;;;6.95;66.16
17936;BME280;9093;52.062;4.508;2023-04-03T01:08:02;103424.00;;;6.97;66.00
17936;BME280;9093;52.062;4.508;2023-04-03T01:10:43;103426.69;;;7.00;65.96
17936;BME280;9093;52.062;4.508;2023-04-03T01:13:31;103441.75;;;7.01;65.73
17936;BME280;9093;52.062;4.508;2023-04-03T01:16:12;103437.31;;;7.00;65.76
17936;BME280;9093;52.062;4.508;2023-04-03T01:18:52;103429.31;;;6.97;65.56
17936;BME280;9093;52.062;4.508;2023-04-03T01:22:10;103427.53;;;6.90;65.77
17936;BME280;9093;52.062;4.508;2023-04-03T01:24:55;103431.09;;;6.92;65.92
17936;BME280;9093;52.062;4.508;2023-04-03T01:27:36;103433.75;;;6.95;65.66
17936;BME280;9093;52.062;4.508;2023-04-03T01:30:18;103441.72;;;6.95;65.64
17936;BME280;9093;52.062;4.508;2023-04-03T01:32:58;103436.41;;;6.92;65.50
17936;BME280;9093;52.062;4.508;2023-04-03T01:35:39;103437.25;;;6.85;65.56
17936;BME280;9093;52.062;4.508;2023-04-03T01:38:19;103439.00;;;6.77;65.58
17936;BME280;9093;52.062;4.508;2023-04-03T01:41:00;103442.53;;;6.70;66.09
17936;BME280;9093;52.062;4.508;2023-04-03T01:43:41;103439.84;;;6.67;65.99
17936;BME280;9093;52.062;4.508;2023-04-03T01:46:22;103436.28;;;6.65;65.97
17936;BME280;9093;52.062;4.508;2023-04-03T01:49:03;103437.19;;;6.64;66.09
17936;BME280;9093;52.062;4.508;2023-04-03T01:51:43;103435.44;;;6.63;66.17
17936;BME280;9093;52.062;4.508;2023-04-03T01:54:23;103433.66;;;6.63;65.86
17936;BME280;9093;52.062;4.508;2023-04-03T01:57:04;103436.31;;;6.63;65.89
17936;BME280;9093;52.062;4.508;2023-04-03T01:59:44;103438.94;;;6.57;66.16
17936;BME280;9093;52.062;4.508;2023-04-03T02:02:24;103436.28;;;6.56;66.19
17936;BME280;9093;52.062;4.508;2023-04-03T02:05:05;103437.13;;;6.53;66.02
17936;BME280;9093;52.062;4.508;2023-04-03T02:07:45;103441.56;;;6.50;66.13
17936;BME280;9093;52.062;4.508;2023-04-03T02:10:26;103441.53;;;6.43;66.09
17936;BME280;9093;52.062;4.508;2023-04-03T02:13:06;103452.13;;;6.42;66.46
17936;BME280;9093;52.062;4.508;2023-04-03T02:15:47;103460.97;;;6.45;66.23
17936;BME280;9093;52.062;4.508;2023-04-03T02:18:27;103454.81;;;6.48;66.04
17936;BME280;9093;52.062;4.508;2023-04-03T02:21:08;103458.34;;;6.47;66.26
17936;BME280;9093;52.062;4.508;2023-04-03T02:23:48;103456.59;;;6.44;65.92
17936;BME280;9093;52.062;4.508;2023-04-03T02:26:28;103453.91;;;6.41;65.99
17936;BME280;9093;52.062;4.508;2023-04-03T02:29:08;103460.06;;;6.39;66.33
17936;BME280;9093;52.062;4.508;2023-04-03T02:31:49;103471.59;;;6.42;66.34
17936;BME280;9093;52.062;4.508;2023-04-03T02:34:30;103464.53;;;6.44;66.23
17936;BME280;9093;52.062;4.508;2023-04-03T02:37:10;103468.06;;;6.46;65.94
17936;BME280;9093;52.062;4.508;2023-04-03T02:39:50;103467.19;;;6.47;65.95
17936;BME280;9093;52.062;4.508;2023-04-03T02:42:31;103468.09;;;6.50;65.67
17936;BME280;9093;52.062;4.508;2023-04-03T02:45:11;103475.16;;;6.47;65.74
17936;BME280;9093;52.062;4.508;2023-04-03T02:47:51;103475.16;;;6.44;65.69
17936;BME280;9093;52.062;4.508;2023-04-03T02:50:32;103475.13;;;6.38;66.06
17936;BME280;9093;52.062;4.508;2023-04-03T02:53:12;103471.53;;;6.30;66.17
17936;BME280;9093;52.062;4.508;2023-04-03T02:55:52;103471.50;;;6.24;66.44
17936;BME280;9093;52.062;4.508;2023-04-03T02:58:33;103466.16;;;6.18;66.37
17936;BME280;9093;52.062;4.508;2023-04-03T03:01:13;103467.03;;;6.17;66.12
17936;BME280;9093;52.062;4.508;2023-04-03T03:03:54;103472.34;;;6.19;66.26
17936;BME280;9093;52.062;4.508;2023-04-03T03:06:34;103480.31;;;6.17;66.16
17936;BME280;9093;52.062;4.508;2023-04-03T03:09:15;103477.63;;;6.14;66.08
17936;BME280;9093;52.062;4.508;2023-04-03T03:11:56;103471.44;;;6.12;66.27
17936;BME280;9093;52.062;4.508;2023-04-03T03:14:36;103474.91;;;6.08;66.29
17936;BME280;9093;52.062;4.508;2023-04-03T03:17:17;103481.06;;;6.01;66.18
17936;BME280;9093;52.062;4.508;2023-04-03T03:19:57;103475.72;;;5.95;66.57
17936;BME280;9093;52.062;4.508;2023-04-03T03:22:37;103473.97;;;5.94;66.43
17936;BME280;9093;52.062;4.508;2023-04-03T03:25:18;103481.88;;;5.91;66.46
17936;BME280;9093;52.062;4.508;2023-04-03T03:27:58;103481.88;;;5.91;66.33
17936;BME280;9093;52.062;4.508;2023-04-03T03:30:38;103481.88;;;5.88;66.59
17936;BME280;9093;52.062;4.508;2023-04-03T03:33:19;103495.03;;;5.80;66.81
17936;BME280;9093;52.062;4.508;2023-04-03T03:35:59;103489.66;;;5.76;66.88
17936;BME280;9093;52.062;4.508;2023-04-03T03:38:40;103492.31;;;5.76;66.99
17936;BME280;9093;52.062;4.508;2023-04-03T03:41:20;103494.94;;;5.71;66.70
17936;BME280;9093;52.062;4.508;2023-04-03T03:44:01;103488.78;;;5.74;66.90
17936;BME280;9093;52.062;4.508;2023-04-03T03:46:41;103495.84;;;5.76;66.53
17936;BME280;9093;52.062;4.508;2023-04-03T03:49:22;103490.56;;;5.78;66.72
17936;BME280;9093;52.062;4.508;2023-04-03T03:52:02;103492.34;;;5.77;66.42
17936;BME280;9093;52.062;4.508;2023-04-03T03:54:42;103494.09;;;5.77;66.70
17936;BME280;9093;52.062;4.508;2023-04-03T03:57:23;103495.81;;;5.72;66.69
17936;BME280;9093;52.062;4.508;2023-04-03T04:00:03;103496.75;;;5.74;66.71
17936;BME280;9093;52.062;4.508;2023-04-03T04:02:44;103492.28;;;5.70;66.41
17936;BME280;9093;52.062;4.508;2023-04-03T04:05:25;103486.94;;;5.66;66.87
17936;BME280;9093;52.062;4.508;2023-04-03T04:08:05;103491.28;;;5.58;66.69
17936;BME280;9093;52.062;4.508;2023-04-03T04:10:45;103489.53;;;5.59;66.99
17936;BME280;9093;52.062;4.508;2023-04-03T04:13:26;103494.84;;;5.59;66.96
17936;BME280;9093;52.062;4.508;2023-04-03T04:16:07;103497.47;;;5.56;66.82
17936;BME280;9093;52.062;4.508;2023-04-03T04:18:47;103497.44;;;5.53;67.19
17936;BME280;9093;52.062;4.508;2023-04-03T04:21:27;103498.34;;;5.55;66.69
17936;BME280;9093;52.062;4.508;2023-04-03T04:24:08;103500.06;;;5.50;66.80
17936;BME280;9093;52.062;4.508;2023-04-03T04:26:48;103495.63;;;5.49;67.12
17936;BME280;9093;52.062;4.508;2023-04-03T04:29:29;103503.56;;;5.50;67.16
17936;BME280;9093;52.062;4.508;2023-04-03T04:32:09;103503.59;;;5.49;67.09
17936;BME280;9093;52.062;4.508;2023-04-03T04:34:50;103507.09;;;5.48;66.99
17936;BME280;9093;52.062;4.508;2023-04-03T04:37:30;103508.00;;;5.48;66.79
17936;BME280;9093;52.062;4.508;2023-04-03T04:40:11;103516.78;;;5.46;66.94
17936;BME280;9093;52.062;4.508;2023-04-03T04:42:51;103505.25;;;5.41;66.89
17936;BME280;9093;52.062;4.508;2023-04-03T04:45:31;103506.97;;;5.34;67.27
17936;BME280;9093;52.062;4.508;2023-04-03T04:48:12;103515.75;;;5.30;67.53
17936;BME280;9093;52.062;4.508;2023-04-03T04:50:52;103520.16;;;5.31;67.18
17936;BME280;9093;52.062;4.508;2023-04-03T04:53:32;103529.91;;;5.34;67.50
17936;BME280;9093;52.062;4.508;2023-04-03T04:56:13;103519.34;;;5.35;67.14
17936;BME280;9093;52.062;4.508;2023-04-03T04:58:53;103515.81;;;5.36;66.92
17936;BME280;9093;52.062;4.508;2023-04-03T05:01:33;103523.66;;;5.27;67.18
17936;BME280;9093;52.062;4.508;2023-04-03T05:04:14;103519.25;;;5.24;67.67
17936;BME280;9093;52.062;4.508;2023-04-03T05:06:55;103524.53;;;5.26;67.21
17936;BME280;9093;52.062;4.508;2023-04-03T05:09:35;103523.66;;;5.27;67.41
17936;BME280;9093;52.062;4.508;2023-04-03T05:12:16;103525.47;;;5.31;67.08
17936;BME280;9093;52.062;4.508;2023-04-03T05:14:56;103522.81;;;5.31;67.33
17936;BME280;9093;52.062;4.508;2023-04-03T05:17:37;103523.72;;;5.33;67.34
17936;BME280;9093;52.062;4.508;2023-04-03T05:20:17;103531.69;;;5.33;67.32
17936;BME280;9093;52.062;4.508;2023-04-03T05:22:58;103535.19;;;5.31;67.14
17936;BME280;9093;52.062;4.508;2023-04-03T05:25:38;103532.47;;;5.26;67.55
17936;BME280;9093;52.062;4.508;2023-04-03T05:28:19;103530.75;;;5.31;67.27
17936;BME280;9093;52.062;4.508;2023-04-03T05:30:59;103536.06;;;5.31;67.28
17936;BME280;9093;52.062;4.508;2023-04-03T05:33:39;103541.34;;;5.28;67.40
17936;BME280;9093;52.062;4.508;2023-04-03T05:36:20;103551.94;;;5.28;67.32
17936;BME280;9093;52.062;4.508;2023-04-03T05:39:00;103545.78;;;5.31;67.15
17936;BME280;9093;52.062;4.508;2023-04-03T05:41:41;103552.00;;;5.34;67.03
17936;BME280;9093;52.062;4.508;2023-04-03T05:44:21;103545.81;;;5.34;66.98
17936;BME280;9093;52.062;4.508;2023-04-03T05:47:01;103534.38;;;5.36;67.13
17936;BME280;9093;52.062;4.508;2023-04-03T05:49:42;103540.56;;;5.37;66.87
17936;BME280;9093;52.062;4.508;2023-04-03T05:52:30;103546.69;;;5.34;67.14
17936;BME280;9093;52.062;4.508;2023-04-03T05:55:11;103544.97;;;5.36;67.10
17936;BME280;9093;52.062;4.508;2023-04-03T05:57:52;103545.84;;;5.38;67.45
17936;BME280;9093;52.062;4.508;2023-04-03T06:00:32;103553.84;;;5.41;67.18
17936;BME280;9093;52.062;4.508;2023-04-03T06:03:12;103553.84;;;5.41;67.31
17936;BME280;9093;52.062;4.508;2023-04-03T06:05:53;103553.88;;;5.44;67.14
17936;BME280;9093;52.062;4.508;2023-04-03T06:08:33;103545.09;;;5.48;67.07
17936;BME280;9093;52.062;4.508;2023-04-03T06:11:14;103563.69;;;5.53;67.13
17936;BME280;9093;52.062;4.508;2023-04-03T06:13:55;103562.78;;;5.52;67.05
17936;BME280;9093;52.062;4.508;2023-04-03T06:16:35;103566.31;;;5.51;67.20
17936;BME280;9093;52.062;4.508;2023-04-03T06:19:16;103566.34;;;5.54;67.08
17936;BME280;9093;52.062;4.508;2023-04-03T06:21:56;103564.56;;;5.53;67.20
17936;BME280;9093;52.062;4.508;2023-04-03T06:24:37;103567.25;;;5.55;67.26
17936;BME280;9093;52.062;4.508;2023-04-03T06:27:17;103575.19;;;5.56;67.16
17936;BME280;9093;52.062;4.508;2023-04-03T06:29:58;103574.31;;;5.54;66.94
17936;BME280;9093;52.062;4.508;2023-04-03T06:32:38;103573.44;;;5.55;67.08
17936;BME280;9093;52.062;4.508;2023-04-03T06:35:18;103578.75;;;5.58;66.94
17936;BME280;9093;52.062;4.508;2023-04-03T06:37:59;103575.19;;;5.56;67.46
17936;BME280;9093;52.062;4.508;2023-04-03T06:40:39;103571.72;;;5.60;67.39
17936;BME280;9093;52.062;4.508;2023-04-03T06:43:20;103569.09;;;5.62;67.54
17936;BME280;9093;52.062;4.508;2023-04-03T06:46:01;103577.09;;;5.68;67.20
17936;BME280;9093;52.062;4.508;2023-04-03T06:48:42;103579.72;;;5.66;67.32
17936;BME280;9093;52.062;4.508;2023-04-03T06:51:27;103579.69;;;5.63;67.37
17936;BME280;9093;52.062;4.508;2023-04-03T06:54:08;103575.31;;;5.67;67.45
17936;BME280;9093;52.062;4.508;2023-04-03T06:56:48;103577.09;;;5.66;67.41
17936;BME280;9093;52.062;4.508;2023-04-03T06:59:29;103575.34;;;5.69;67.53
17936;BME280;9093;52.062;4.508;2023-04-03T07:02:11;103575.41;;;5.75;67.38
17936;BME280;9093;52.062;4.508;2023-04-03T07:04:51;103578.94;;;5.77;67.16
17936;BME280;9093;52.062;4.508;2023-04-03T07:07:32;103587.81;;;5.79;67.37
17936;BME280;9093;52.062;4.508;2023-04-03T07:10:14;103586.94;;;5.80;67.47
17936;BME280;9093;52.062;4.508;2023-04-03T07:12:54;103592.28;;;5.86;67.31
17936;BME280;9093;52.062;4.508;2023-04-03T07:15:35;103592.28;;;5.86;67.34
17936;BME280;9093;52.062;4.508;2023-04-03T07:18:16;103595.00;;;5.89;67.36
17936;BME280;9093;52.062;4.508;2023-04-03T07:20:57;103601.19;;;5.89;67.38
17936;BME280;9093;52.062;4.508;2023-04-03T07:23:38;103604.72;;;5.90;67.22
17936;BME280;9093;52.062;4.508;2023-04-03T07:26:19;103605.66;;;5.92;67.18
17936;BME280;9093;52.062;4.508;2023-04-03T07:29:00;103609.22;;;5.94;67.48
17936;BME280;9093;52.062;4.508;2023-04-03T07:31:41;103610.13;;;5.97;67.29
17936;BME280;9093;52.062;4.508;2023-04-03T07:34:22;103614.59;;;6.03;67.16
17936;BME280;9093;52.062;4.508;2023-04-03T07:37:02;103613.72;;;6.05;67.08
17936;BME280;9093;52.062;4.508;2023-04-03T07:39:45;103616.38;;;6.07;67.41
17936;BME280;9093;52.062;4.508;2023-04-03T07:42:26;103609.34;;;6.09;67.08
17936;BME280;9093;52.062;4.508;2023-04-03T07:45:08;103622.63;;;6.11;67.20
17936;BME280;9093;52.062;4.508;2023-04-03T07:47:48;103617.34;;;6.15;67.35
17936;BME280;9093;52.062;4.508;2023-04-03T07:50:29;103625.34;;;6.18;67.01
17936;BME280;9093;52.062;4.508;2023-04-03T07:53:10;103628.00;;;6.18;67.03
17936;BME280;9093;52.062;4.508;2023-04-03T07:55:50;103618.25;;;6.17;67.06
17936;BME280;9093;52.062;4.508;2023-04-03T07:58:35;103622.69;;;6.18;67.18
17936;BME280;9093;52.062;4.508;2023-04-03T08:01:16;103616.53;;;6.22;67.09
17936;BME280;9093;52.062;4.508;2023-04-03T08:03:57;103624.50;;;6.27;66.52
17936;BME280;9093;52.062;4.508;2023-04-03T08:06:37;103628.06;;;6.27;67.19
17936;BME280;9093;52.062;4.508;2023-04-03T08:09:18;103631.63;;;6.32;67.15
17936;BME280;9093;52.062;4.508;2023-04-03T08:11:59;103630.75;;;6.33;66.98
17936;BME280;9093;52.062;4.508;2023-04-03T08:14:39;103636.09;;;6.35;66.92
17936;BME280;9093;52.062;4.508;2023-04-03T08:17:20;103632.59;;;6.37;66.90
17936;BME280;9093;52.062;4.508;2023-04-03T08:20:02;103638.78;;;6.41;66.79
17936;BME280;9093;52.062;4.508;2023-04-03T08:22:42;103637.94;;;6.43;66.59
17936;BME280;9093;52.062;4.508;2023-04-03T08:25:23;103642.38;;;6.44;66.85
17936;BME280;9093;52.062;4.508;2023-04-03T08:28:03;103641.50;;;6.49;66.57
17936;BME280;9093;52.062;4.508;2023-04-03T08:30:44;103645.94;;;6.53;66.76
17936;BME280;9093;52.062;4.508;2023-04-03T08:33:24;103639.78;;;6.54;66.58
17936;BME280;9093;52.062;4.508;2023-04-03T08:36:06;103643.34;;;6.59;66.83
17936;BME280;9093;52.062;4.508;2023-04-03T08:38:48;103638.94;;;6.61;66.46
17936;BME280;9093;52.062;4.508;2023-04-03T08:41:43;103640.75;;;6.63;66.69
17936;BME280;9093;52.062;4.508;2023-04-03T08:44:45;103646.94;;;6.67;66.72
17936;BME280;9093;52.062;4.508;2023-04-03T08:47:53;103639.03;;;6.70;66.68
17936;BME280;9093;52.062;4.508;2023-04-03T08:50:40;103647.91;;;6.75;66.45
17936;BME280;9093;52.062;4.508;2023-04-03T08:53:26;103643.47;;;6.77;66.51
17936;BME280;9093;52.062;4.508;2023-04-03T08:56:09;103646.13;;;6.78;66.32
17936;BME280;9093;52.062;4.508;2023-04-03T08:58:53;103643.50;;;6.83;66.72
17936;BME280;9093;52.062;4.508;2023-04-03T09:01:39;103639.09;;;6.85;66.59
17936;BME280;9093;52.062;4.508;2023-04-03T09:04:20;103633.81;;;6.91;66.56
17936;BME280;9093;52.062;4.508;2023-04-03T09:07:10;103621.47;;;6.95;66.17
17936;BME280;9093;52.062;4.508;2023-04-03T09:09:55;103621.47;;;6.98;66.06
17936;BME280;9093;52.062;4.508;2023-04-03T09:12:45;103629.44;;;7.02;65.94
17936;BME280;9093;52.062;4.508;2023-04-03T09:15:29;103631.25;;;7.06;65.83
17936;BME280;9093;52.062;4.508;2023-04-03T09:18:27;103634.78;;;7.08;65.64
17936;BME280;9093;52.062;4.508;2023-04-03T09:21:17;103636.59;;;7.15;65.68
17936;BME280;9093;52.062;4.508;2023-04-03T09:24:02;103642.81;;;7.16;65.46
17936;BME280;9093;52.062;4.508;2023-04-03T09:26:53;103634.84;;;7.17;65.53
17936;BME280;9093;52.062;4.508;2023-04-03T09:29:39;103630.44;;;7.19;64.94
17936;BME280;9093;52.062;4.508;2023-04-03T09:32:31;103636.63;;;7.21;64.69
17936;BME280;9093;52.062;4.508;2023-04-03T09:35:28;103626.03;;;7.24;64.60
17936;BME280;9093;52.062;4.508;2023-04-03T09:41:05;103617.22;;;7.32;64.03
17936;BME280;9093;52.062;4.508;2023-04-03T09:43:53;103611.91;;;7.36;63.53
17936;BME280;9093;52.062;4.508;2023-04-03T09:46:34;103610.16;;;7.40;63.59
17936;BME280;9093;52.062;4.508;2023-04-03T09:49:15;103603.06;;;7.45;63.33
17936;BME280;9093;52.062;4.508;2023-04-03T09:51:55;103599.53;;;7.47;62.92
17936;BME280;9093;52.062;4.508;2023-04-03T09:54:37;103608.41;;;7.51;62.38
17936;BME280;9093;52.062;4.508;2023-04-03T09:57:19;103606.63;;;7.53;62.41
17936;BME280;9093;52.062;4.508;2023-04-03T10:00:01;103601.31;;;7.59;62.20
17936;BME280;9093;52.062;4.508;2023-04-03T10:02:50;103601.34;;;7.62;61.46
17936;BME280;9093;52.062;4.508;2023-04-03T10:05:36;103598.69;;;7.66;61.24
17936;BME280;9093;52.062;4.508;2023-04-03T10:08:28;103596.03;;;7.68;61.18
17936;BME280;9093;52.062;4.508;2023-04-03T10:11:11;103589.84;;;7.75;60.99
17936;BME280;9093;52.062;4.508;2023-04-03T10:13:55;103592.50;;;7.78;60.84
17936;BME280;9093;52.062;4.508;2023-04-03T10:16:41;103592.50;;;7.81;60.75
17936;BME280;9093;52.062;4.508;2023-04-03T10:19:29;103592.50;;;7.84;60.69
17936;BME280;9093;52.062;4.508;2023-04-03T10:28:38;103583.66;;;7.97;60.11
17936;BME280;9093;52.062;4.508;2023-04-03T10:37:00;103572.13;;;8.06;59.32
17936;BME280;9093;52.062;4.508;2023-04-03T10:39:58;103571.25;;;8.08;58.73
17936;BME280;9093;52.062;4.508;2023-04-03T10:46:49;103579.22;;;8.18;58.57
17936;BME280;9093;52.062;4.508;2023-04-03T10:52:22;103575.69;;;8.26;57.97
17936;BME280;9093;52.062;4.508;2023-04-03T10:57:56;103562.41;;;8.34;57.34
17936;BME280;9093;52.062;4.508;2023-04-03T11:00:42;103566.81;;;8.38;57.18
17936;BME280;9093;52.062;4.508;2023-04-03T11:06:12;103562.38;;;8.46;56.75
17936;BME280;9093;52.062;4.508;2023-04-03T11:09:01;103553.50;;;8.50;56.64
17936;BME280;9093;52.062;4.508;2023-04-03T11:11:47;103554.38;;;8.58;56.20
17936;BME280;9093;52.062;4.508;2023-04-03T11:14:32;103557.00;;;8.64;56.17
17936;BME280;9093;52.062;4.508;2023-04-03T11:17:23;103555.22;;;8.69;56.14
17936;BME280;9093;52.062;4.508;2023-04-03T11:20:17;103548.97;;;8.75;56.25
17936;BME280;9093;52.062;4.508;2023-04-03T11:23:03;103545.41;;;8.82;55.56
17936;BME280;9093;52.062;4.508;2023-04-03T11:25:46;103548.03;;;8.86;55.38
17936;BME280;9093;52.062;4.508;2023-04-03T11:28:29;103549.81;;;8.91;55.27
17936;BME280;9093;52.062;4.508;2023-04-03T11:31:23;103544.47;;;8.95;55.06
17936;BME280;9093;52.062;4.508;2023-04-03T11:34:29;103540.91;;;8.98;54.78
17936;BME280;9093;52.062;4.508;2023-04-03T11:37:29;103539.13;;;9.03;54.28
17936;BME280;9093;52.062;4.508;2023-04-03T11:40:22;103528.44;;;9.09;54.11
17936;BME280;9093;52.062;4.508;2023-04-03T11:43:20;103524.84;;;9.13;54.41
17936;BME280;9093;52.062;4.508;2023-04-03T11:46:04;103519.47;;;9.19;53.83
17936;BME280;9093;52.062;4.508;2023-04-03T11:48:47;103508.78;;;9.25;53.60
17936;BME280;9093;52.062;4.508;2023-04-03T11:54:46;103490.94;;;9.33;52.96
17936;BME280;9093;52.062;4.508;2023-04-03T12:08:54;103490.63;;;9.79;51.19
17936;BME280;9093;52.062;4.508;2023-04-03T12:11:35;103488.75;;;9.88;50.75
17936;BME280;9093;52.062;4.508;2023-04-03T12:14:16;103487.78;;;9.98;50.46
17936;BME280;9093;52.062;4.508;2023-04-03T12:16:57;103487.66;;;10.07;50.32
17936;BME280;9093;52.062;4.508;2023-04-03T12:19:39;103481.38;;;10.16;50.01
17936;BME280;9093;52.062;4.508;2023-04-03T12:22:23;103474.16;;;10.27;49.93
17936;BME280;9093;52.062;4.508;2023-04-03T12:28:24;103465.91;;;10.47;49.41
17936;BME280;9093;52.062;4.508;2023-04-03T12:31:05;103457.81;;;10.55;49.12
17936;BME280;9093;52.062;4.508;2023-04-03T12:37:00;103466.44;;;10.75;49.23
17936;BME280;9093;52.062;4.508;2023-04-03T12:46:12;103448.19;;;11.07;48.31
17936;BME280;9093;52.062;4.508;2023-04-03T12:48:55;103456.06;;;11.18;48.35
17936;BME280;9093;52.062;4.508;2023-04-03T12:51:42;103440.75;;;11.27;48.22
17936;BME280;9093;52.062;4.508;2023-04-03T12:54:32;103447.69;;;11.39;47.98
17936;BME280;9093;52.062;4.508;2023-04-03T12:59:55;103442.94;;;11.58;47.56
17936;BME280;9093;52.062;4.508;2023-04-03T13:02:36;103429.34;;;11.70;47.54
17936;BME280;9093;52.062;4.508;2023-04-03T13:05:18;103430.13;;;11.80;46.80
17936;BME280;9093;52.062;4.508;2023-04-03T13:08:05;103429.88;;;11.93;46.92
17936;BME280;9093;52.062;4.508;2023-04-03T13:10:59;103433.19;;;12.07;46.80
17936;BME280;9093;52.062;4.508;2023-04-03T13:13:54;103430.22;;;12.21;46.86
17936;BME280;9093;52.062;4.508;2023-04-03T13:16:34;103424.59;;;12.35;46.44
17936;BME280;9093;52.062;4.508;2023-04-03T13:19:17;103432.41;;;12.45;46.33
17936;BME280;9093;52.062;4.508;2023-04-03T13:22:26;103425.22;;;12.47;46.11
17936;BME280;9093;52.062;4.508;2023-04-03T13:25:09;103427.69;;;12.58;45.86
17936;BME280;9093;52.062;4.508;2023-04-03T13:27:50;103426.47;;;12.71;45.27
17936;BME280;9093;52.062;4.508;2023-04-03T13:30:34;103418.25;;;12.80;45.07
17936;BME280;9093;52.062;4.508;2023-04-03T13:33:22;103423.44;;;12.89;45.32
17936;BME280;9093;52.062;4.508;2023-04-03T13:36:07;103423.28;;;12.96;45.17
17936;BME280;9093;52.062;4.508;2023-04-03T13:41:59;103422.75;;;13.20;45.06
17936;BME280;9093;52.062;4.508;2023-04-03T13:44:42;103417.22;;;13.26;44.84
17936;BME280;9093;52.062;4.508;2023-04-03T13:47:23;103408.13;;;13.33;45.03
17936;BME280;9093;52.062;4.508;2023-04-03T13:50:15;103402.59;;;13.39;44.87
17936;BME280;9093;52.062;4.508;2023-04-03T13:53:11;103408.72;;;13.44;45.16
17936;BME280;9093;52.062;4.508;2023-04-03T13:56:29;103416.69;;;13.47;44.48
17936;BME280;9093;52.062;4.508;2023-04-03T14:04:52;103403.00;;;13.58;44.42
17936;BME280;9093;52.062;4.508;2023-04-03T14:07:38;103399.28;;;13.63;44.03
17936;BME280;9093;52.062;4.508;2023-04-03T14:10:18;103392.00;;;13.67;44.33
17936;BME280;9093;52.062;4.508;2023-04-03T14:12:59;103395.50;;;13.71;44.61
17936;BME280;9093;52.062;4.508;2023-04-03T14:15:40;103388.28;;;13.73;44.36
17936;BME280;9093;52.062;4.508;2023-04-03T14:18:20;103383.69;;;13.78;44.11
17936;BME280;9093;52.062;4.508;2023-04-03T14:21:01;103383.59;;;13.81;43.99
17936;BME280;9093;52.062;4.508;2023-04-03T14:23:41;103381.66;;;13.86;43.88
17936;BME280;9093;52.062;4.508;2023-04-03T14:26:23;103367.31;;;13.87;43.94
17936;BME280;9093;52.062;4.508;2023-04-03T14:29:06;103369.06;;;13.88;44.01
17936;BME280;9093;52.062;4.508;2023-04-03T14:31:47;103367.31;;;13.87;43.77
17936;BME280;9093;52.062;4.508;2023-04-03T14:34:28;103362.75;;;13.90;43.57
17936;BME280;9093;52.062;4.508;2023-04-03T14:37:11;103360.84;;;13.94;44.07
17936;BME280;9093;52.062;4.508;2023-04-03T14:39:52;103356.41;;;13.93;44.13
17936;BME280;9093;52.062;4.508;2023-04-03T14:42:35;103365.19;;;13.98;43.95
17936;BME280;9093;52.062;4.508;2023-04-03T14:45:17;103360.81;;;13.95;44.31
17936;BME280;9093;52.062;4.508;2023-04-03T14:47:58;103359.75;;;14.01;44.21
17936;BME280;9093;52.062;4.508;2023-04-03T14:50:39;103361.41;;;14.05;43.92
17936;BME280;9093;52.062;4.508;2023-04-03T14:53:20;103360.50;;;14.06;43.52
17936;BME280;9093;52.062;4.508;2023-04-03T14:56:11;103364.06;;;14.06;43.33
17936;BME280;9093;52.062;4.508;2023-04-03T14:58:55;103364.84;;;14.10;43.46
17936;BME280;9093;52.062;4.508;2023-04-03T15:01:36;103367.50;;;14.12;43.19
17936;BME280;9093;52.062;4.508;2023-04-03T15:04:19;103362.94;;;14.15;43.23
17936;BME280;9093;52.062;4.508;2023-04-03T15:07:00;103368.22;;;14.18;42.99
17936;BME280;9093;52.062;4.508;2023-04-03T15:09:40;103367.28;;;14.19;42.53
17936;BME280;9093;52.062;4.508;2023-04-03T15:12:20;103359.16;;;14.22;42.35
17936;BME280;9093;52.062;4.508;2023-04-03T15:15:01;103362.56;;;14.27;42.08
17936;BME280;9093;52.062;4.508;2023-04-03T15:17:42;103357.84;;;14.35;41.94
17936;BME280;9093;52.062;4.508;2023-04-03T15:20:25;103346.00;;;14.42;42.24
17936;BME280;9093;52.062;4.508;2023-04-03T15:23:06;103345.75;;;14.52;42.02
17936;BME280;9093;52.062;4.508;2023-04-03T15:25:47;103340.91;;;14.63;41.91
17936;BME280;9093;52.062;4.508;2023-04-03T15:28:33;103343.22;;;14.75;42.06
17936;BME280;9093;52.062;4.508;2023-04-03T15:31:13;103341.75;;;14.93;41.63
17936;BME280;9093;52.062;4.508;2023-04-03T15:33:54;103336.75;;;15.08;41.56
17936;BME280;9093;52.062;4.508;2023-04-03T15:36:34;103329.91;;;15.24;41.25
17936;BME280;9093;52.062;4.508;2023-04-03T15:39:15;103325.88;;;15.38;40.67